| time (UTC) | temp C | wind direction | speed KPH | gust KPH | rain 1hr cm | rain 24hr cm | rain mn cm | humidity % | barometer mb |
| 20260902100012 | 11 | 47 | 9.7 | 16.1 | 0.00 | 0.00 | 0.00 | 92 | 1022.2 |
| 20260902094509 | 11 | 53 | 9.7 | 16.1 | 0.00 | 0.00 | 0.00 | 92 | 1022.0 |
| 20260902093008 | 11 | 51 | 11.3 | 12.9 | 0.00 | 0.00 | 0.00 | 92 | 1021.9 |
| 20260902091505 | 11 | 48 | 9.7 | 14.5 | 0.00 | 0.00 | 0.00 | 92 | 1021.9 |
| 20260902090005 | 11 | 54 | 8.0 | 12.9 | 0.00 | 0.00 | 0.00 | 91 | 1021.8 |
| 20260902084508 | 11 | 53 | 9.7 | 12.9 | 0.00 | 0.00 | 0.00 | 90 | 1021.7 |
| 20260902083002 | 11 | 43 | 6.4 | 9.7 | 0.00 | 0.00 | 0.00 | 90 | 1021.9 |
| 20260902081502 | 11 | 42 | 6.4 | 9.7 | 0.00 | 0.00 | 0.00 | 91 | 1021.9 |
| 20260902080103 | 11 | 45 | 6.4 | 9.7 | 0.00 | 0.00 | 0.00 | 90 | 1021.8 |
| 20260902074612 | 11 | 53 | 9.7 | 11.3 | 0.00 | 0.00 | 0.00 | 91 | 1021.5 |
| 20260902073103 | 11 | 50 | 6.4 | 9.7 | 0.00 | 0.00 | 0.00 | 92 | 1021.4 |
| 20260902071601 | 11 | 55 | 8.0 | 11.3 | 0.00 | 0.00 | 0.00 | 92 | 1021.5 |
| 20260902070054 | 11 | 53 | 8.0 | 11.3 | 0.00 | 0.00 | 0.00 | 93 | 1021.5 |
| 20260902064552 | 11 | 55 | 8.0 | 11.3 | 0.00 | 0.00 | 0.00 | 94 | 1021.2 |
| 20260902063056 | 11 | 54 | 8.0 | 11.3 | 0.00 | 0.00 | 0.00 | 94 | 1021.2 |
| 20260902061553 | 11 | 61 | 9.7 | 11.3 | 0.00 | 0.00 | 0.00 | 94 | 1021.1 |
| 20260902060058 | 11 | 61 | 8.0 | 11.3 | 0.00 | 0.00 | 0.00 | 95 | 1021.1 |
| 20260902054547 | 11 | 64 | 4.8 | 8.0 | 0.00 | 0.00 | 0.00 | 94 | 1021.1 |
| 20260902053059 | 11 | 63 | 6.4 | 12.9 | 0.00 | 0.00 | 0.00 | 94 | 1021.0 |
| 20260902051544 | 11 | 57 | 4.8 | 8.0 | 0.00 | 0.00 | 0.00 | 94 | 1021.0 |
| 20260902050044 | 11 | 57 | 4.8 | 8.0 | 0.00 | 0.00 | 0.00 | 94 | 1020.7 |
| 20260902044539 | 11 | 52 | 4.8 | 9.7 | 0.00 | 0.00 | 0.00 | 94 | 1020.5 |
| 20260902043038 | 11 | 52 | 4.8 | 11.3 | 0.00 | 0.00 | 0.00 | 94 | 1020.4 |
| 20260902041539 | 11 | 54 | 9.7 | 12.9 | 0.00 | 0.00 | 0.00 | 95 | 1020.3 |
| 20260902040033 | 11 | 131 | 4.8 | 8.0 | 0.00 | 0.00 | 0.00 | 94 | 1020.0 |
| 20260902034534 | 11 | 137 | 4.8 | 8.0 | 0.00 | 0.00 | 0.00 | 95 | 1020.0 |
| 20260902033033 | 11 | 166 | 4.8 | 6.4 | 0.00 | 0.00 | 0.00 | 94 | 1020.1 |
| 20260902031530 | 12 | 167 | 0.0 | 1.6 | 0.00 | 0.00 | 0.00 | 94 | 1019.7 |
| 20260902030030 | 12 | 167 | 0.0 | 3.2 | 0.00 | 0.00 | 0.00 | 94 | 1019.8 |
| 20260902024532 | 12 | 167 | 0.0 | 4.8 | 0.00 | 0.00 | 0.00 | 93 | 1019.8 |
| 20260902023033 | 12 | 167 | 0.0 | 0.0 | 0.00 | 0.00 | 0.00 | 92 | 1019.9 |
| 20260902021528 | 12 | 167 | 1.6 | 4.8 | 0.00 | 0.00 | 0.00 | 92 | 1019.8 |
| 20260902020028 | 12 | 167 | 0.0 | 4.8 | 0.00 | 0.00 | 0.00 | 93 | 1019.8 |
| 20260902014534 | 12 | 167 | 1.6 | 4.8 | 0.00 | 0.00 | 0.00 | 92 | 1019.7 |
| 20260902013026 | 12 | 167 | 0.0 | 3.2 | 0.00 | 0.00 | 0.00 | 90 | 1019.8 |
| 20260902011525 | 12 | 167 | 1.6 | 6.4 | 0.00 | 0.00 | 0.00 | 87 | 1019.6 |
| 20260902010032 | 13 | 167 | 3.2 | 6.4 | 0.00 | 0.00 | 0.00 | 85 | 1019.6 |
| 20260902004522 | 13 | 167 | 3.2 | 6.4 | 0.00 | 0.00 | 0.00 | 86 | 1019.4 |
| 20260902003022 | 13 | 168 | 4.8 | 8.0 | 0.00 | 0.00 | 0.00 | 87 | 1019.3 |
| 20260902001527 | 13 | 173 | 3.2 | 6.4 | 0.00 | 0.00 | 0.00 | 88 | 1019.3 |
| 20260902000028 | 13 | 173 | 1.6 | 4.8 | 0.00 | 0.00 | 0.00 | 88 | 1019.2 |
| 20260901234519 | 14 | 173 | 0.0 | 6.4 | 0.00 | 0.00 | 0.00 | 84 | 1019.2 |
| 20260901233020 | 15 | 174 | 1.6 | 4.8 | 0.00 | 0.00 | 0.00 | 83 | 1019.2 |
| 20260901231517 | 16 | 173 | 0.0 | 4.8 | 0.00 | 0.00 | 0.00 | 78 | 1019.0 |
| 20260901230016 | 17 | 173 | 3.2 | 11.3 | 0.00 | 0.00 | 0.00 | 75 | 1019.0 |
| 20260901224515 | 17 | 148 | 3.2 | 11.3 | 0.00 | 0.00 | 0.00 | 73 | 1018.7 |
| 20260901223013 | 18 | 123 | 4.8 | 11.3 | 0.00 | 0.00 | 0.00 | 71 | 1018.5 |
| 20260901221512 | 18 | 171 | 1.6 | 8.0 | 0.00 | 0.00 | 0.00 | 71 | 1018.6 |
| 20260901220021 | 19 | 210 | 6.4 | 11.3 | 0.00 | 0.00 | 0.00 | 70 | 1018.6 |
| 20260901214510 | 20 | 182 | 6.4 | 11.3 | 0.00 | 0.00 | 0.00 | 70 | 1018.4 |
| 20260901213011 | 20 | 213 | 9.7 | 14.5 | 0.00 | 0.00 | 0.00 | 68 | 1018.2 |
| 20260901211508 | 20 | 200 | 8.0 | 17.7 | 0.00 | 0.00 | 0.00 | 68 | 1018.2 |
| 20260901210008 | 21 | 203 | 8.0 | 14.5 | 0.00 | 0.00 | 0.00 | 65 | 1018.1 |
| 20260901204510 | 21 | 202 | 9.7 | 14.5 | 0.00 | 0.00 | 0.00 | 66 | 1017.9 |
| 20260901203016 | 21 | 203 | 11.3 | 19.3 | 0.00 | 0.00 | 0.00 | 63 | 1017.8 |
| 20260901201506 | 22 | 180 | 9.7 | 17.7 | 0.00 | 0.00 | 0.00 | 58 | 1017.9 |
| 20260901200009 | 23 | 144 | 12.9 | 27.4 | 0.00 | 0.00 | 0.00 | 50 | 1017.9 |
| 20260901194504 | 23 | 360 | 14.5 | 25.7 | 0.00 | 0.00 | 0.00 | 51 | 1018.0 |
| 20260901193005 | 23 | 154 | 12.9 | 27.4 | 0.00 | 0.00 | 0.00 | 51 | 1017.9 |
| 20260901191504 | 23 | 160 | 16.1 | 24.1 | 0.00 | 0.00 | 0.00 | 51 | 1017.9 |
| 20260901190003 | 23 | 180 | 12.9 | 25.7 | 0.00 | 0.00 | 0.00 | 51 | 1017.9 |
| 20260901184508 | 23 | 176 | 14.5 | 25.7 | 0.00 | 0.00 | 0.00 | 52 | 1017.9 |
| 20260901183002 | 23 | 162 | 12.9 | 25.7 | 0.00 | 0.00 | 0.00 | 54 | 1017.8 |
| 20260901181603 | 24 | 161 | 12.9 | 22.5 | 0.00 | 0.00 | 0.00 | 52 | 1017.7 |
| 20260901180100 | 23 | 204 | 14.5 | 22.5 | 0.00 | 0.00 | 0.00 | 55 | 1017.7 |
| 20260901174600 | 23 | 235 | 11.3 | 24.1 | 0.00 | 0.00 | 0.00 | 57 | 1017.6 |
| 20260901173059 | 24 | 213 | 11.3 | 24.1 | 0.00 | 0.00 | 0.00 | 57 | 1017.5 |
| 20260901171558 | 23 | 142 | 12.9 | 25.7 | 0.00 | 0.00 | 0.00 | 59 | 1017.7 |
| 20260901170116 | 24 | 212 | 9.7 | 17.7 | 0.00 | 0.00 | 0.00 | 58 | 1017.6 |
| 20260901164554 | 23 | 220 | 9.7 | 20.9 | 0.00 | 0.00 | 0.00 | 63 | 1017.6 |
| 20260901163054 | 22 | 202 | 8.0 | 16.1 | 0.00 | 0.00 | 0.00 | 67 | 1017.6 |
| 20260901161557 | 22 | 186 | 9.7 | 17.7 | 0.00 | 0.00 | 0.00 | 66 | 1017.8 |
| 20260901160055 | 22 | 205 | 6.4 | 12.9 | 0.00 | 0.00 | 0.00 | 64 | 1017.9 |
| 20260901154554 | 23 | 68 | 3.2 | 16.1 | 0.00 | 0.00 | 0.00 | 59 | 1017.9 |
| 20260901153048 | 22 | 59 | 9.7 | 17.7 | 0.00 | 0.00 | 0.00 | 63 | 1018.0 |
| 20260901151553 | 22 | 68 | 3.2 | 11.3 | 0.00 | 0.00 | 0.00 | 65 | 1017.9 |
| 20260901150100 | 21 | 55 | 1.6 | 8.0 | 0.00 | 0.00 | 0.00 | 68 | 1017.9 |
| 20260901144546 | 21 | 237 | 1.6 | 9.7 | 0.00 | 0.00 | 0.00 | 72 | 1018.0 |
| 20260901143043 | 20 | 226 | 3.2 | 6.4 | 0.00 | 0.00 | 0.00 | 76 | 1018.3 |
| 20260901141542 | 20 | 216 | 3.2 | 8.0 | 0.00 | 0.00 | 0.00 | 75 | 1018.3 |
| 20260901140041 | 19 | 222 | 1.6 | 8.0 | 0.00 | 0.00 | 0.00 | 70 | 1018.3 |
| 20260901134541 | 19 | 113 | 3.2 | 6.4 | 0.00 | 0.00 | 0.00 | 72 | 1018.4 |
| 20260901133038 | 18 | 73 | 0.0 | 6.4 | 0.00 | 0.00 | 0.00 | 73 | 1018.4 |
| 20260901131544 | 18 | 69 | 4.8 | 12.9 | 0.00 | 0.00 | 0.00 | 73 | 1018.1 |
| 20260901130033 | 17 | 54 | 6.4 | 12.9 | 0.00 | 0.00 | 0.00 | 75 | 1018.1 |
| 20260901124531 | 17 | 34 | 6.4 | 9.7 | 0.00 | 0.00 | 0.00 | 75 | 1018.1 |
| 20260901123033 | 16 | 47 | 3.2 | 8.0 | 0.00 | 0.00 | 0.00 | 81 | 1017.9 |
| 20260901121526 | 15 | 37 | 3.2 | 6.4 | 0.00 | 0.00 | 0.00 | 84 | 1018.2 |
| 20260901120020 | 15 | 36 | 0.0 | 4.8 | 0.00 | 0.00 | 0.00 | 86 | 1018.0 |
| 20260901114534 | 13 | 36 | 0.0 | 0.0 | 0.00 | 0.00 | 0.00 | 89 | 1017.8 |
| 20260901113019 | 12 | 36 | 0.0 | 6.4 | 0.00 | 0.00 | 0.00 | 92 | 1017.8 |
| 20260901111512 | 12 | 36 | 1.6 | 4.8 | 0.00 | 0.00 | 0.00 | 92 | 1017.7 |
| 20260901110011 | 12 | 36 | 3.2 | 6.4 | 0.00 | 0.00 | 0.00 | 91 | 1017.5 |
| 20260901104509 | 11 | 36 | 3.2 | 8.0 | 0.00 | 0.00 | 0.00 | 93 | 1017.3 |
| 20260901103015 | 11 | 40 | 6.4 | 11.3 | 0.00 | 0.00 | 0.00 | 94 | 1017.0 |
| 20260901101508 | 10 | 46 | 4.8 | 11.3 | 0.00 | 0.00 | 0.00 | 95 | 1017.1 |